createdAt,value
2023-03-27T00:00:01.162Z,76
2023-03-27T00:05:01.142Z,76
2023-03-27T00:10:01.127Z,76
2023-03-27T00:15:01.188Z,76
2023-03-27T00:20:01.172Z,76
2023-03-27T00:25:01.136Z,76
2023-03-27T00:30:01.168Z,76
2023-03-27T00:35:01.194Z,76
2023-03-27T00:40:01.173Z,77
2023-03-27T00:45:01.173Z,77
2023-03-27T00:50:01.198Z,76
2023-03-27T00:55:01.146Z,76
2023-03-27T01:00:01.160Z,76
2023-03-27T01:05:01.122Z,76
2023-03-27T01:10:01.136Z,76
2023-03-27T01:15:01.094Z,76
2023-03-27T01:20:01.149Z,76
2023-03-27T01:25:01.213Z,76
2023-03-27T01:30:01.174Z,77
2023-03-27T01:35:02.206Z,77
2023-03-27T01:40:01.206Z,77
2023-03-27T01:45:01.199Z,77
2023-03-27T01:50:01.149Z,77
2023-03-27T01:55:01.201Z,77
2023-03-27T02:00:17.504Z,77
2023-03-27T02:05:01.193Z,77
2023-03-27T02:10:01.147Z,77
2023-03-27T02:15:24.754Z,77
2023-03-27T02:20:01.173Z,77
2023-03-27T02:25:01.149Z,77
2023-03-27T02:30:01.141Z,77
2023-03-27T02:35:01.145Z,78
2023-03-27T02:40:01.148Z,78
2023-03-27T02:45:01.158Z,78
2023-03-27T02:50:01.200Z,78
2023-03-27T02:55:01.159Z,78
2023-03-27T03:00:01.126Z,78
2023-03-27T03:05:01.187Z,78
2023-03-27T03:10:01.164Z,78
2023-03-27T03:15:01.142Z,78
2023-03-27T03:20:01.141Z,78
2023-03-27T03:25:01.140Z,79
2023-03-27T03:30:01.124Z,79
2023-03-27T03:35:01.199Z,79
2023-03-27T03:40:01.202Z,79
2023-03-27T03:45:01.217Z,79
2023-03-27T03:50:01.166Z,79
2023-03-27T03:55:01.148Z,79
2023-03-27T04:00:01.144Z,79
2023-03-27T04:05:01.122Z,79
2023-03-27T04:10:01.157Z,79
2023-03-27T04:15:01.208Z,79
2023-03-27T04:20:00.273Z,79
2023-03-27T04:25:01.194Z,79
2023-03-27T04:30:01.205Z,79
2023-03-27T04:35:01.206Z,79
2023-03-27T04:40:01.187Z,79
2023-03-27T04:45:01.132Z,79
2023-03-27T04:50:01.143Z,79
2023-03-27T04:55:01.145Z,79
2023-03-27T05:00:01.217Z,79
2023-03-27T05:05:01.115Z,79
2023-03-27T05:10:01.155Z,79
2023-03-27T05:15:01.140Z,79
2023-03-27T05:20:01.207Z,79
2023-03-27T05:25:01.201Z,79
2023-03-27T05:30:01.125Z,79
2023-03-27T05:35:01.158Z,79
2023-03-27T05:40:01.117Z,79
2023-03-27T05:45:01.159Z,79
2023-03-27T05:50:01.150Z,79
2023-03-27T05:55:01.171Z,79
2023-03-27T06:00:05.128Z,79
2023-03-27T06:05:01.120Z,80
2023-03-27T06:10:06.124Z,80
2023-03-27T06:15:01.482Z,80
2023-03-27T06:20:01.116Z,80
2023-03-27T06:25:01.135Z,80
2023-03-27T06:30:05.215Z,80
2023-03-27T06:35:01.197Z,80
2023-03-27T06:40:01.181Z,81
2023-03-27T06:45:01.152Z,81
2023-03-27T06:50:01.197Z,81
2023-03-27T06:55:01.154Z,81
2023-03-27T07:00:05.220Z,81
2023-03-27T07:25:01.192Z,81
2023-03-27T07:30:01.195Z,81
2023-03-27T07:35:01.206Z,81
2023-03-27T07:40:01.208Z,81
2023-03-27T07:45:05.301Z,80
2023-03-27T07:50:01.180Z,80
2023-03-27T07:55:05.273Z,80
2023-03-27T08:00:10.173Z,80
2023-03-27T08:05:01.355Z,79
2023-03-27T08:10:01.170Z,78
2023-03-27T08:15:01.194Z,78
2023-03-27T08:20:01.143Z,77
2023-03-27T08:25:01.165Z,76
2023-03-27T08:30:05.166Z,76
2023-03-27T08:35:01.159Z,75
2023-03-27T08:40:01.194Z,75
2023-03-27T08:45:01.169Z,74
2023-03-27T08:50:01.139Z,74
2023-03-27T08:55:01.128Z,73
2023-03-27T09:00:01.158Z,73
2023-03-27T09:05:05.241Z,73
2023-03-27T09:10:10.176Z,72
2023-03-27T09:15:01.215Z,70
2023-03-27T09:20:01.180Z,71
2023-03-27T09:25:05.270Z,70
2023-03-27T09:30:05.358Z,68
2023-03-27T09:35:05.313Z,69
2023-03-27T09:40:01.159Z,68
2023-03-27T09:45:01.191Z,67
2023-03-27T09:50:00.295Z,68
2023-03-27T09:55:01.119Z,68
2023-03-27T10:00:01.206Z,67
2023-03-27T10:05:05.256Z,65
2023-03-27T10:10:10.122Z,65
2023-03-27T10:15:01.705Z,65
2023-03-27T10:20:01.214Z,64
2023-03-27T10:25:01.188Z,64
2023-03-27T10:30:01.194Z,65
2023-03-27T10:35:01.250Z,65
2023-03-27T10:40:01.190Z,64
2023-03-27T10:45:01.200Z,65
2023-03-27T10:50:01.168Z,65
2023-03-27T10:55:01.125Z,65
2023-03-27T11:00:05.146Z,64
2023-03-27T11:05:01.134Z,64
2023-03-27T11:10:01.154Z,64
2023-03-27T11:15:01.115Z,63
2023-03-27T11:20:01.126Z,63
2023-03-27T11:25:01.211Z,64
2023-03-27T11:30:01.200Z,65
2023-03-27T11:35:03.894Z,66
2023-03-27T11:40:01.191Z,65
2023-03-27T11:45:01.220Z,63
2023-03-27T11:50:00.231Z,63
2023-03-27T11:55:01.170Z,62
2023-03-27T12:00:01.161Z,63
2023-03-27T12:05:01.188Z,65
2023-03-27T12:10:00.259Z,66
2023-03-27T12:15:01.134Z,66
2023-03-27T12:20:01.133Z,66
2023-03-27T12:25:05.363Z,65
2023-03-27T12:30:00.317Z,65
2023-03-27T12:35:01.118Z,64
2023-03-27T12:40:05.115Z,64
2023-03-27T12:45:01.165Z,63
2023-03-27T12:50:01.177Z,62
2023-03-27T12:55:01.158Z,63
2023-03-27T13:00:01.217Z,66
2023-03-27T13:05:01.133Z,67
2023-03-27T13:10:01.236Z,67
2023-03-27T13:15:01.198Z,68
2023-03-27T13:20:01.207Z,67
2023-03-27T13:25:01.181Z,66
2023-03-27T13:30:01.119Z,64
2023-03-27T13:35:01.179Z,64
2023-03-27T13:40:01.149Z,64
2023-03-27T13:45:01.169Z,64
2023-03-27T13:50:02.156Z,63
2023-03-27T13:55:01.125Z,63
2023-03-27T14:00:01.192Z,63
2023-03-27T14:05:01.145Z,62
2023-03-27T14:10:01.127Z,62
2023-03-27T14:15:01.135Z,63
2023-03-27T14:20:01.171Z,63
2023-03-27T14:25:01.135Z,63
2023-03-27T14:30:00.281Z,63
2023-03-27T14:35:01.137Z,64
2023-03-27T14:40:01.156Z,64
2023-03-27T14:45:01.155Z,64
2023-03-27T14:50:01.164Z,65
2023-03-27T14:55:01.160Z,66
2023-03-27T15:00:05.201Z,66
2023-03-27T15:05:01.175Z,66
2023-03-27T15:10:01.190Z,66
2023-03-27T15:15:01.210Z,66
2023-03-27T15:20:01.233Z,65
2023-03-27T15:25:01.122Z,65
2023-03-27T15:30:01.266Z,63
2023-03-27T15:35:01.166Z,60
2023-03-27T15:40:01.168Z,60
2023-03-27T15:45:01.224Z,59
2023-03-27T15:50:00.220Z,59
2023-03-27T15:55:01.122Z,59
2023-03-27T16:00:00.265Z,60
2023-03-27T16:05:01.248Z,60
2023-03-27T16:10:01.161Z,60
2023-03-27T16:15:01.353Z,61
2023-03-27T16:20:01.172Z,62
2023-03-27T16:25:01.162Z,62
2023-03-27T16:30:01.163Z,63
2023-03-27T16:35:01.161Z,63
2023-03-27T16:40:01.172Z,63
2023-03-27T16:45:01.182Z,64
2023-03-27T16:50:11.362Z,64
2023-03-27T16:55:01.203Z,60
2023-03-27T17:00:01.165Z,60
2023-03-27T17:05:01.166Z,61
2023-03-27T17:10:01.166Z,62
2023-03-27T17:15:01.174Z,63
2023-03-27T17:20:01.153Z,64
2023-03-27T17:25:01.230Z,64
2023-03-27T17:30:05.167Z,64
2023-03-27T17:35:01.180Z,65
2023-03-27T17:40:01.182Z,65
2023-03-27T17:45:01.157Z,66
2023-03-27T17:50:01.118Z,65
2023-03-27T17:55:01.160Z,66
2023-03-27T18:00:01.143Z,66
2023-03-27T18:05:01.175Z,66
2023-03-27T18:10:01.162Z,66
2023-03-27T18:15:01.115Z,66
2023-03-27T18:20:01.123Z,66
2023-03-27T18:25:01.211Z,66
2023-03-27T18:30:00.291Z,66
2023-03-27T18:35:01.162Z,66
2023-03-27T18:40:01.193Z,66
2023-03-27T18:45:01.116Z,66
2023-03-27T18:50:00.284Z,66
2023-03-27T18:55:01.222Z,67
2023-03-27T19:00:01.169Z,67
2023-03-27T19:05:01.170Z,67
2023-03-27T19:10:01.202Z,67
2023-03-27T19:15:09.841Z,67
2023-03-27T19:20:01.151Z,67
2023-03-27T19:25:01.213Z,67
2023-03-27T19:30:01.137Z,67
2023-03-27T19:35:01.153Z,67
2023-03-27T19:40:01.123Z,67
2023-03-27T19:45:01.162Z,67
2023-03-27T19:50:00.224Z,67
2023-03-27T19:55:01.184Z,67
2023-03-27T20:00:01.161Z,67
2023-03-27T20:05:01.219Z,68
2023-03-27T20:10:01.124Z,68
2023-03-27T20:15:11.851Z,68
2023-03-27T20:20:01.187Z,68
2023-03-27T20:25:01.183Z,68
2023-03-27T20:30:01.184Z,68
2023-03-27T20:35:07.375Z,68
2023-03-27T20:40:01.186Z,68
2023-03-27T20:45:01.143Z,68
2023-03-27T20:50:00.218Z,68
2023-03-27T20:55:01.151Z,68
2023-03-27T21:00:01.192Z,68
2023-03-27T21:05:01.140Z,68
2023-03-27T21:10:00.211Z,68
2023-03-27T21:15:01.171Z,68
2023-03-27T21:20:01.130Z,68
2023-03-27T21:25:00.186Z,69
2023-03-27T21:30:01.168Z,69
2023-03-27T21:35:01.135Z,69
2023-03-27T21:40:01.147Z,69
2023-03-27T21:45:01.167Z,69
2023-03-27T21:50:01.166Z,69
2023-03-27T21:55:03.469Z,70
2023-03-27T22:00:01.196Z,70
2023-03-27T22:05:00.393Z,70
2023-03-27T22:10:01.188Z,70
2023-03-27T22:15:01.154Z,70
2023-03-27T22:20:01.166Z,70
2023-03-27T22:25:01.144Z,70
2023-03-27T22:30:01.169Z,70
2023-03-27T22:35:01.171Z,70
2023-03-27T22:40:01.142Z,71
2023-03-27T22:45:01.147Z,71
2023-03-27T22:50:01.154Z,71
2023-03-27T22:55:01.145Z,71
2023-03-27T23:00:01.188Z,71
2023-03-27T23:05:01.143Z,71
2023-03-27T23:10:00.164Z,71
2023-03-27T23:15:01.194Z,72
2023-03-27T23:20:01.217Z,72
2023-03-27T23:25:01.138Z,71
2023-03-27T23:30:01.195Z,71
2023-03-27T23:35:01.108Z,71
2023-03-27T23:40:01.185Z,71
2023-03-27T23:45:01.209Z,72
2023-03-27T23:50:01.208Z,72
2023-03-27T23:55:01.145Z,72
